sensor_id;sensor_type;location;lat;lon;timestamp;P1;durP1;ratioP1;P2;durP2;ratioP2
75195;SDS011;63773;42.282;22.782;2022-10-16T00:01:17;6.85;;;3.83;;
75195;SDS011;63773;42.282;22.782;2022-10-16T00:03:44;6.47;;;4.80;;
75195;SDS011;63773;42.282;22.782;2022-10-16T00:06:10;11.45;;;5.38;;
75195;SDS011;63773;42.282;22.782;2022-10-16T00:08:37;9.02;;;5.13;;
75195;SDS011;63773;42.282;22.782;2022-10-16T00:11:06;7.78;;;4.95;;
75195;SDS011;63773;42.282;22.782;2022-10-16T00:13:40;7.38;;;5.18;;
75195;SDS011;63773;42.282;22.782;2022-10-16T00:18:34;7.55;;;4.45;;
75195;SDS011;63773;42.282;22.782;2022-10-16T00:21:12;9.20;;;5.45;;
75195;SDS011;63773;42.282;22.782;2022-10-16T00:26:07;5.78;;;4.20;;
75195;SDS011;63773;42.282;22.782;2022-10-16T00:28:34;8.38;;;4.55;;
75195;SDS011;63773;42.282;22.782;2022-10-16T00:31:04;9.05;;;5.50;;
75195;SDS011;63773;42.282;22.782;2022-10-16T00:33:34;6.65;;;4.38;;
75195;SDS011;63773;42.282;22.782;2022-10-16T00:36:01;7.25;;;3.92;;
75195;SDS011;63773;42.282;22.782;2022-10-16T00:38:28;5.35;;;3.85;;
75195;SDS011;63773;42.282;22.782;2022-10-16T00:40:53;7.43;;;3.90;;
75195;SDS011;63773;42.282;22.782;2022-10-16T00:45:57;8.48;;;4.57;;
75195;SDS011;63773;42.282;22.782;2022-10-16T00:48:23;12.95;;;4.03;;
75195;SDS011;63773;42.282;22.782;2022-10-16T00:50:48;8.02;;;3.38;;
75195;SDS011;63773;42.282;22.782;2022-10-16T00:53:14;8.02;;;4.18;;
75195;SDS011;63773;42.282;22.782;2022-10-16T00:55:41;7.28;;;4.30;;
75195;SDS011;63773;42.282;22.782;2022-10-16T00:58:06;9.18;;;4.43;;
75195;SDS011;63773;42.282;22.782;2022-10-16T01:00:32;8.68;;;3.97;;
75195;SDS011;63773;42.282;22.782;2022-10-16T01:02:58;7.72;;;4.28;;
75195;SDS011;63773;42.282;22.782;2022-10-16T01:05:37;7.30;;;4.18;;
75195;SDS011;63773;42.282;22.782;2022-10-16T01:08:13;7.32;;;4.10;;
75195;SDS011;63773;42.282;22.782;2022-10-16T01:13:21;6.28;;;3.88;;
75195;SDS011;63773;42.282;22.782;2022-10-16T01:16:35;7.05;;;4.45;;
75195;SDS011;63773;42.282;22.782;2022-10-16T01:19:07;7.90;;;4.47;;
75195;SDS011;63773;42.282;22.782;2022-10-16T01:21:40;6.53;;;4.38;;
75195;SDS011;63773;42.282;22.782;2022-10-16T01:27:46;8.68;;;4.35;;
75195;SDS011;63773;42.282;22.782;2022-10-16T01:30:13;7.45;;;4.25;;
75195;SDS011;63773;42.282;22.782;2022-10-16T01:40:44;10.35;;;4.85;;
75195;SDS011;63773;42.282;22.782;2022-10-16T01:43:14;8.45;;;4.63;;
75195;SDS011;63773;42.282;22.782;2022-10-16T01:45:42;11.02;;;5.70;;
75195;SDS011;63773;42.282;22.782;2022-10-16T01:48:09;9.95;;;5.65;;
75195;SDS011;63773;42.282;22.782;2022-10-16T01:50:39;9.80;;;5.38;;
75195;SDS011;63773;42.282;22.782;2022-10-16T01:53:08;8.10;;;5.25;;
75195;SDS011;63773;42.282;22.782;2022-10-16T01:55:38;8.43;;;4.72;;
75195;SDS011;63773;42.282;22.782;2022-10-16T01:58:10;7.80;;;5.15;;
75195;SDS011;63773;42.282;22.782;2022-10-16T02:00:38;8.40;;;4.57;;
75195;SDS011;63773;42.282;22.782;2022-10-16T02:03:07;7.35;;;4.13;;
75195;SDS011;63773;42.282;22.782;2022-10-16T02:08:12;8.57;;;4.75;;
75195;SDS011;63773;42.282;22.782;2022-10-16T02:10:38;6.53;;;3.30;;
75195;SDS011;63773;42.282;22.782;2022-10-16T02:15:54;6.15;;;3.85;;
75195;SDS011;63773;42.282;22.782;2022-10-16T02:18:20;7.47;;;4.75;;
75195;SDS011;63773;42.282;22.782;2022-10-16T02:23:45;6.20;;;4.00;;
75195;SDS011;63773;42.282;22.782;2022-10-16T02:26:23;7.10;;;4.05;;
75195;SDS011;63773;42.282;22.782;2022-10-16T02:29:10;7.65;;;4.07;;
75195;SDS011;63773;42.282;22.782;2022-10-16T02:31:41;6.90;;;4.25;;
75195;SDS011;63773;42.282;22.782;2022-10-16T02:34:12;7.55;;;3.83;;
75195;SDS011;63773;42.282;22.782;2022-10-16T02:36:40;7.28;;;4.45;;
75195;SDS011;63773;42.282;22.782;2022-10-16T02:39:07;8.52;;;4.32;;
75195;SDS011;63773;42.282;22.782;2022-10-16T02:41:33;5.57;;;3.00;;
75195;SDS011;63773;42.282;22.782;2022-10-16T02:43:59;6.63;;;3.75;;
75195;SDS011;63773;42.282;22.782;2022-10-16T02:46:24;6.78;;;3.92;;
75195;SDS011;63773;42.282;22.782;2022-10-16T02:48:50;6.57;;;4.43;;
75195;SDS011;63773;42.282;22.782;2022-10-16T02:51:15;8.77;;;4.38;;
75195;SDS011;63773;42.282;22.782;2022-10-16T02:53:40;7.05;;;4.07;;
75195;SDS011;63773;42.282;22.782;2022-10-16T02:56:06;6.68;;;3.13;;
75195;SDS011;63773;42.282;22.782;2022-10-16T02:58:32;8.98;;;3.65;;
75195;SDS011;63773;42.282;22.782;2022-10-16T03:00:57;6.40;;;3.22;;
75195;SDS011;63773;42.282;22.782;2022-10-16T03:03:22;6.93;;;4.38;;
75195;SDS011;63773;42.282;22.782;2022-10-16T03:05:48;8.63;;;4.60;;
75195;SDS011;63773;42.282;22.782;2022-10-16T03:08:13;9.02;;;4.05;;
75195;SDS011;63773;42.282;22.782;2022-10-16T03:10:39;5.68;;;2.90;;
75195;SDS011;63773;42.282;22.782;2022-10-16T03:13:05;7.78;;;4.28;;
75195;SDS011;63773;42.282;22.782;2022-10-16T03:15:30;6.97;;;3.60;;
75195;SDS011;63773;42.282;22.782;2022-10-16T03:17:58;7.28;;;4.65;;
75195;SDS011;63773;42.282;22.782;2022-10-16T03:20:24;8.05;;;4.25;;
75195;SDS011;63773;42.282;22.782;2022-10-16T03:22:50;8.32;;;4.40;;
75195;SDS011;63773;42.282;22.782;2022-10-16T03:25:16;8.38;;;4.70;;
75195;SDS011;63773;42.282;22.782;2022-10-16T03:27:41;8.02;;;4.47;;
75195;SDS011;63773;42.282;22.782;2022-10-16T03:30:07;8.13;;;5.25;;
75195;SDS011;63773;42.282;22.782;2022-10-16T03:32:33;9.35;;;4.45;;
75195;SDS011;63773;42.282;22.782;2022-10-16T03:34:59;9.77;;;4.80;;
75195;SDS011;63773;42.282;22.782;2022-10-16T03:37:24;9.27;;;5.50;;
75195;SDS011;63773;42.282;22.782;2022-10-16T03:39:49;13.23;;;5.60;;
75195;SDS011;63773;42.282;22.782;2022-10-16T03:42:15;8.40;;;5.47;;
75195;SDS011;63773;42.282;22.782;2022-10-16T03:44:40;11.20;;;4.93;;
75195;SDS011;63773;42.282;22.782;2022-10-16T03:47:06;10.30;;;5.68;;
75195;SDS011;63773;42.282;22.782;2022-10-16T03:49:31;13.18;;;6.05;;
75195;SDS011;63773;42.282;22.782;2022-10-16T03:51:56;11.65;;;4.68;;
75195;SDS011;63773;42.282;22.782;2022-10-16T03:54:22;11.57;;;6.38;;
75195;SDS011;63773;42.282;22.782;2022-10-16T03:56:48;7.90;;;5.25;;
75195;SDS011;63773;42.282;22.782;2022-10-16T03:59:13;11.10;;;4.80;;
75195;SDS011;63773;42.282;22.782;2022-10-16T04:01:39;10.00;;;5.75;;
75195;SDS011;63773;42.282;22.782;2022-10-16T04:04:04;12.05;;;5.63;;
75195;SDS011;63773;42.282;22.782;2022-10-16T04:06:30;9.52;;;5.55;;
75195;SDS011;63773;42.282;22.782;2022-10-16T04:08:55;8.80;;;4.72;;
75195;SDS011;63773;42.282;22.782;2022-10-16T04:11:21;9.63;;;5.28;;
75195;SDS011;63773;42.282;22.782;2022-10-16T04:13:47;8.90;;;4.72;;
75195;SDS011;63773;42.282;22.782;2022-10-16T04:16:12;8.50;;;5.50;;
75195;SDS011;63773;42.282;22.782;2022-10-16T04:18:38;8.70;;;4.13;;
75195;SDS011;63773;42.282;22.782;2022-10-16T04:21:04;8.38;;;4.20;;
75195;SDS011;63773;42.282;22.782;2022-10-16T04:23:30;8.63;;;5.13;;
75195;SDS011;63773;42.282;22.782;2022-10-16T04:25:56;9.95;;;5.18;;
75195;SDS011;63773;42.282;22.782;2022-10-16T04:28:21;10.35;;;4.07;;
75195;SDS011;63773;42.282;22.782;2022-10-16T04:30:47;9.70;;;4.97;;
75195;SDS011;63773;42.282;22.782;2022-10-16T04:33:12;16.35;;;6.38;;
75195;SDS011;63773;42.282;22.782;2022-10-16T04:35:38;10.20;;;5.28;;
75195;SDS011;63773;42.282;22.782;2022-10-16T04:38:03;8.20;;;3.92;;
75195;SDS011;63773;42.282;22.782;2022-10-16T04:40:29;11.40;;;5.55;;
75195;SDS011;63773;42.282;22.782;2022-10-16T04:42:57;9.13;;;4.65;;
75195;SDS011;63773;42.282;22.782;2022-10-16T04:45:23;9.95;;;5.28;;
75195;SDS011;63773;42.282;22.782;2022-10-16T04:47:49;8.55;;;4.40;;
75195;SDS011;63773;42.282;22.782;2022-10-16T04:50:14;11.15;;;4.75;;
75195;SDS011;63773;42.282;22.782;2022-10-16T04:52:39;9.65;;;4.57;;
75195;SDS011;63773;42.282;22.782;2022-10-16T04:55:05;9.20;;;3.83;;
75195;SDS011;63773;42.282;22.782;2022-10-16T04:57:31;8.63;;;4.53;;
75195;SDS011;63773;42.282;22.782;2022-10-16T04:59:58;9.93;;;4.50;;
75195;SDS011;63773;42.282;22.782;2022-10-16T05:02:24;11.30;;;4.88;;
75195;SDS011;63773;42.282;22.782;2022-10-16T05:04:49;8.15;;;4.18;;
75195;SDS011;63773;42.282;22.782;2022-10-16T05:07:14;11.35;;;4.45;;
75195;SDS011;63773;42.282;22.782;2022-10-16T05:09:40;8.40;;;5.22;;
75195;SDS011;63773;42.282;22.782;2022-10-16T05:12:05;16.13;;;6.03;;
75195;SDS011;63773;42.282;22.782;2022-10-16T05:14:31;10.57;;;5.38;;
75195;SDS011;63773;42.282;22.782;2022-10-16T05:16:56;10.60;;;6.55;;
75195;SDS011;63773;42.282;22.782;2022-10-16T05:19:22;10.52;;;6.53;;
75195;SDS011;63773;42.282;22.782;2022-10-16T05:21:47;14.65;;;7.18;;
75195;SDS011;63773;42.282;22.782;2022-10-16T05:24:13;11.73;;;6.43;;
75195;SDS011;63773;42.282;22.782;2022-10-16T05:26:39;11.73;;;7.57;;
75195;SDS011;63773;42.282;22.782;2022-10-16T05:29:04;12.38;;;7.18;;
75195;SDS011;63773;42.282;22.782;2022-10-16T05:31:29;10.73;;;6.00;;
75195;SDS011;63773;42.282;22.782;2022-10-16T05:33:58;13.10;;;7.47;;
75195;SDS011;63773;42.282;22.782;2022-10-16T05:36:25;16.38;;;8.07;;
75195;SDS011;63773;42.282;22.782;2022-10-16T05:38:50;12.25;;;6.28;;
75195;SDS011;63773;42.282;22.782;2022-10-16T05:41:16;16.90;;;8.50;;
75195;SDS011;63773;42.282;22.782;2022-10-16T05:43:46;16.42;;;8.38;;
75195;SDS011;63773;42.282;22.782;2022-10-16T05:46:15;16.45;;;8.40;;
75195;SDS011;63773;42.282;22.782;2022-10-16T05:48:41;15.20;;;7.95;;
75195;SDS011;63773;42.282;22.782;2022-10-16T05:51:09;16.50;;;9.68;;
75195;SDS011;63773;42.282;22.782;2022-10-16T05:53:36;15.25;;;9.77;;
75195;SDS011;63773;42.282;22.782;2022-10-16T05:56:03;12.40;;;6.45;;
75195;SDS011;63773;42.282;22.782;2022-10-16T05:58:33;11.23;;;5.45;;
75195;SDS011;63773;42.282;22.782;2022-10-16T06:01:04;14.68;;;6.57;;
75195;SDS011;63773;42.282;22.782;2022-10-16T06:03:32;8.93;;;5.50;;
75195;SDS011;63773;42.282;22.782;2022-10-16T06:05:58;7.93;;;5.45;;
75195;SDS011;63773;42.282;22.782;2022-10-16T06:08:23;8.40;;;4.80;;
75195;SDS011;63773;42.282;22.782;2022-10-16T06:10:59;9.13;;;6.35;;
75195;SDS011;63773;42.282;22.782;2022-10-16T06:13:27;12.25;;;6.15;;
75195;SDS011;63773;42.282;22.782;2022-10-16T06:15:52;11.30;;;6.43;;
75195;SDS011;63773;42.282;22.782;2022-10-16T06:18:17;11.23;;;6.93;;
75195;SDS011;63773;42.282;22.782;2022-10-16T06:20:43;8.90;;;6.28;;
75195;SDS011;63773;42.282;22.782;2022-10-16T06:23:08;11.95;;;6.05;;
75195;SDS011;63773;42.282;22.782;2022-10-16T06:25:34;11.05;;;6.07;;
75195;SDS011;63773;42.282;22.782;2022-10-16T06:27:59;10.05;;;5.93;;
75195;SDS011;63773;42.282;22.782;2022-10-16T06:30:24;11.48;;;7.03;;
75195;SDS011;63773;42.282;22.782;2022-10-16T06:32:50;13.55;;;6.10;;
75195;SDS011;63773;42.282;22.782;2022-10-16T06:35:15;14.05;;;7.10;;
75195;SDS011;63773;42.282;22.782;2022-10-16T06:37:40;8.55;;;4.65;;
75195;SDS011;63773;42.282;22.782;2022-10-16T06:40:06;10.95;;;6.55;;
75195;SDS011;63773;42.282;22.782;2022-10-16T06:42:32;12.90;;;7.78;;
75195;SDS011;63773;42.282;22.782;2022-10-16T06:44:57;9.90;;;6.72;;
75195;SDS011;63773;42.282;22.782;2022-10-16T06:47:23;8.32;;;5.65;;
75195;SDS011;63773;42.282;22.782;2022-10-16T06:49:48;13.45;;;6.75;;
75195;SDS011;63773;42.282;22.782;2022-10-16T06:52:14;9.30;;;5.80;;
75195;SDS011;63773;42.282;22.782;2022-10-16T06:54:39;11.10;;;6.70;;
75195;SDS011;63773;42.282;22.782;2022-10-16T06:57:05;10.05;;;6.20;;
75195;SDS011;63773;42.282;22.782;2022-10-16T06:59:30;9.18;;;5.30;;
75195;SDS011;63773;42.282;22.782;2022-10-16T07:01:55;9.32;;;6.22;;
75195;SDS011;63773;42.282;22.782;2022-10-16T07:04:21;9.30;;;5.72;;
75195;SDS011;63773;42.282;22.782;2022-10-16T07:06:46;9.15;;;5.80;;
75195;SDS011;63773;42.282;22.782;2022-10-16T07:09:12;8.30;;;4.47;;
75195;SDS011;63773;42.282;22.782;2022-10-16T07:11:38;8.20;;;5.18;;
75195;SDS011;63773;42.282;22.782;2022-10-16T07:14:04;8.15;;;4.32;;
75195;SDS011;63773;42.282;22.782;2022-10-16T07:16:35;7.78;;;5.20;;
75195;SDS011;63773;42.282;22.782;2022-10-16T07:19:01;9.18;;;4.72;;
75195;SDS011;63773;42.282;22.782;2022-10-16T07:21:28;7.65;;;5.20;;
75195;SDS011;63773;42.282;22.782;2022-10-16T07:23:56;9.15;;;5.13;;
75195;SDS011;63773;42.282;22.782;2022-10-16T07:26:23;7.78;;;5.45;;
75195;SDS011;63773;42.282;22.782;2022-10-16T07:28:49;7.65;;;5.03;;
75195;SDS011;63773;42.282;22.782;2022-10-16T07:31:15;9.10;;;5.85;;
75195;SDS011;63773;42.282;22.782;2022-10-16T07:33:42;9.02;;;5.68;;
75195;SDS011;63773;42.282;22.782;2022-10-16T07:36:09;9.85;;;5.88;;
75195;SDS011;63773;42.282;22.782;2022-10-16T07:38:35;9.05;;;5.72;;
75195;SDS011;63773;42.282;22.782;2022-10-16T07:41:05;8.93;;;6.10;;
75195;SDS011;63773;42.282;22.782;2022-10-16T07:43:32;10.40;;;6.30;;
75195;SDS011;63773;42.282;22.782;2022-10-16T07:45:58;9.70;;;5.93;;
75195;SDS011;63773;42.282;22.782;2022-10-16T07:48:26;11.10;;;6.13;;
75195;SDS011;63773;42.282;22.782;2022-10-16T07:50:56;9.25;;;5.68;;
75195;SDS011;63773;42.282;22.782;2022-10-16T07:53:22;8.00;;;5.13;;
75195;SDS011;63773;42.282;22.782;2022-10-16T07:55:48;8.00;;;5.30;;
75195;SDS011;63773;42.282;22.782;2022-10-16T07:58:13;6.47;;;5.15;;
75195;SDS011;63773;42.282;22.782;2022-10-16T08:00:39;6.93;;;5.30;;
75195;SDS011;63773;42.282;22.782;2022-10-16T08:03:04;8.75;;;5.28;;
75195;SDS011;63773;42.282;22.782;2022-10-16T08:05:30;7.75;;;5.07;;
75195;SDS011;63773;42.282;22.782;2022-10-16T08:07:57;8.73;;;4.60;;
75195;SDS011;63773;42.282;22.782;2022-10-16T08:10:24;9.27;;;5.88;;
75195;SDS011;63773;42.282;22.782;2022-10-16T08:12:51;10.93;;;4.70;;
75195;SDS011;63773;42.282;22.782;2022-10-16T08:15:17;7.93;;;5.05;;
75195;SDS011;63773;42.282;22.782;2022-10-16T08:17:43;7.10;;;5.35;;
75195;SDS011;63773;42.282;22.782;2022-10-16T08:20:09;8.20;;;5.20;;
75195;SDS011;63773;42.282;22.782;2022-10-16T08:22:35;6.95;;;5.00;;
75195;SDS011;63773;42.282;22.782;2022-10-16T08:25:01;8.45;;;5.63;;
75195;SDS011;63773;42.282;22.782;2022-10-16T08:27:32;7.40;;;5.30;;
75195;SDS011;63773;42.282;22.782;2022-10-16T08:29:58;7.97;;;5.00;;
75195;SDS011;63773;42.282;22.782;2022-10-16T08:32:23;11.20;;;5.25;;
75195;SDS011;63773;42.282;22.782;2022-10-16T08:34:49;7.53;;;5.03;;
75195;SDS011;63773;42.282;22.782;2022-10-16T08:37:14;11.55;;;5.32;;
75195;SDS011;63773;42.282;22.782;2022-10-16T08:39:39;6.18;;;4.57;;
75195;SDS011;63773;42.282;22.782;2022-10-16T08:45:05;7.78;;;5.03;;
75195;SDS011;63773;42.282;22.782;2022-10-16T08:50:14;7.10;;;5.05;;
75195;SDS011;63773;42.282;22.782;2022-10-16T08:52:50;8.88;;;4.80;;
75195;SDS011;63773;42.282;22.782;2022-10-16T08:58:17;8.55;;;5.70;;
75195;SDS011;63773;42.282;22.782;2022-10-16T09:00:48;10.65;;;6.95;;
75195;SDS011;63773;42.282;22.782;2022-10-16T09:03:22;8.23;;;5.65;;
75195;SDS011;63773;42.282;22.782;2022-10-16T09:23:17;9.07;;;4.75;;
75195;SDS011;63773;42.282;22.782;2022-10-16T09:25:49;8.18;;;5.03;;
75195;SDS011;63773;42.282;22.782;2022-10-16T09:28:16;8.13;;;4.60;;
75195;SDS011;63773;42.282;22.782;2022-10-16T09:33:09;8.25;;;4.85;;
75195;SDS011;63773;42.282;22.782;2022-10-16T09:38:01;7.15;;;4.60;;
75195;SDS011;63773;42.282;22.782;2022-10-16T09:40:28;8.00;;;5.05;;
75195;SDS011;63773;42.282;22.782;2022-10-16T09:43:12;6.30;;;4.28;;
75195;SDS011;63773;42.282;22.782;2022-10-16T09:45:41;6.25;;;4.30;;
75195;SDS011;63773;42.282;22.782;2022-10-16T09:48:12;5.22;;;3.83;;
75195;SDS011;63773;42.282;22.782;2022-10-16T09:50:54;6.03;;;3.85;;
75195;SDS011;63773;42.282;22.782;2022-10-16T09:53:21;7.45;;;4.70;;
75195;SDS011;63773;42.282;22.782;2022-10-16T09:55:51;6.22;;;4.07;;
75195;SDS011;63773;42.282;22.782;2022-10-16T09:58:18;5.97;;;4.32;;
75195;SDS011;63773;42.282;22.782;2022-10-16T10:00:50;6.53;;;4.18;;
75195;SDS011;63773;42.282;22.782;2022-10-16T10:16:45;6.82;;;5.13;;
75195;SDS011;63773;42.282;22.782;2022-10-16T10:19:19;5.53;;;4.07;;
75195;SDS011;63773;42.282;22.782;2022-10-16T10:21:47;4.90;;;2.85;;
75195;SDS011;63773;42.282;22.782;2022-10-16T10:24:13;4.57;;;3.10;;
75195;SDS011;63773;42.282;22.782;2022-10-16T10:27:23;4.22;;;2.72;;
75195;SDS011;63773;42.282;22.782;2022-10-16T10:29:38;6.45;;;4.07;;
75195;SDS011;63773;42.282;22.782;2022-10-16T10:40:54;5.80;;;3.40;;
75195;SDS011;63773;42.282;22.782;2022-10-16T10:46:25;4.70;;;3.15;;
75195;SDS011;63773;42.282;22.782;2022-10-16T10:59:56;6.55;;;3.65;;
75195;SDS011;63773;42.282;22.782;2022-10-16T11:08:02;4.72;;;2.72;;
75195;SDS011;63773;42.282;22.782;2022-10-16T11:10:50;4.63;;;2.53;;
75195;SDS011;63773;42.282;22.782;2022-10-16T11:19:02;6.05;;;3.25;;
75195;SDS011;63773;42.282;22.782;2022-10-16T11:21:48;4.88;;;2.28;;
75195;SDS011;63773;42.282;22.782;2022-10-16T11:24:23;4.07;;;2.63;;
75195;SDS011;63773;42.282;22.782;2022-10-16T11:27:08;5.03;;;2.78;;
75195;SDS011;63773;42.282;22.782;2022-10-16T11:29:43;4.32;;;2.15;;
75195;SDS011;63773;42.282;22.782;2022-10-16T11:32:20;4.60;;;2.17;;
75195;SDS011;63773;42.282;22.782;2022-10-16T11:34:53;4.47;;;3.55;;
75195;SDS011;63773;42.282;22.782;2022-10-16T11:37:26;3.72;;;2.33;;
75195;SDS011;63773;42.282;22.782;2022-10-16T11:39:57;3.42;;;2.53;;
75195;SDS011;63773;42.282;22.782;2022-10-16T11:42:35;3.40;;;2.22;;
75195;SDS011;63773;42.282;22.782;2022-10-16T11:48:00;3.20;;;1.77;;
75195;SDS011;63773;42.282;22.782;2022-10-16T11:56:04;3.60;;;2.60;;
75195;SDS011;63773;42.282;22.782;2022-10-16T12:03:54;3.30;;;1.52;;
75195;SDS011;63773;42.282;22.782;2022-10-16T12:06:40;6.93;;;2.13;;
75195;SDS011;63773;42.282;22.782;2022-10-16T12:09:27;2.83;;;1.80;;
75195;SDS011;63773;42.282;22.782;2022-10-16T12:11:56;3.83;;;2.25;;
75195;SDS011;63773;42.282;22.782;2022-10-16T12:14:43;4.00;;;2.13;;
75195;SDS011;63773;42.282;22.782;2022-10-16T12:19:45;3.60;;;2.15;;
75195;SDS011;63773;42.282;22.782;2022-10-16T12:22:28;4.10;;;1.98;;
75195;SDS011;63773;42.282;22.782;2022-10-16T12:24:55;2.80;;;1.40;;
75195;SDS011;63773;42.282;22.782;2022-10-16T12:27:27;3.63;;;1.67;;
75195;SDS011;63773;42.282;22.782;2022-10-16T12:29:58;4.32;;;1.67;;
75195;SDS011;63773;42.282;22.782;2022-10-16T12:32:33;3.58;;;1.60;;
75195;SDS011;63773;42.282;22.782;2022-10-16T12:35:02;3.45;;;2.20;;
75195;SDS011;63773;42.282;22.782;2022-10-16T12:37:33;2.97;;;1.55;;
75195;SDS011;63773;42.282;22.782;2022-10-16T12:40:11;4.78;;;2.03;;
75195;SDS011;63773;42.282;22.782;2022-10-16T12:42:40;2.97;;;1.63;;
75195;SDS011;63773;42.282;22.782;2022-10-16T12:47:57;4.15;;;2.00;;
75195;SDS011;63773;42.282;22.782;2022-10-16T12:52:56;3.90;;;2.00;;
75195;SDS011;63773;42.282;22.782;2022-10-16T12:55:22;6.30;;;1.98;;
75195;SDS011;63773;42.282;22.782;2022-10-16T12:58:00;2.97;;;1.92;;
75195;SDS011;63773;42.282;22.782;2022-10-16T13:00:31;3.55;;;1.42;;
75195;SDS011;63773;42.282;22.782;2022-10-16T13:11:00;3.10;;;1.50;;
75195;SDS011;63773;42.282;22.782;2022-10-16T13:13:40;3.38;;;1.48;;
75195;SDS011;63773;42.282;22.782;2022-10-16T13:16:35;3.03;;;1.60;;
75195;SDS011;63773;42.282;22.782;2022-10-16T13:24:49;3.90;;;1.70;;
75195;SDS011;63773;42.282;22.782;2022-10-16T13:30:19;3.00;;;1.35;;
75195;SDS011;63773;42.282;22.782;2022-10-16T13:32:49;4.07;;;2.08;;
75195;SDS011;63773;42.282;22.782;2022-10-16T13:35:19;3.65;;;2.03;;
75195;SDS011;63773;42.282;22.782;2022-10-16T13:37:47;4.38;;;1.60;;
75195;SDS011;63773;42.282;22.782;2022-10-16T13:40:22;3.15;;;1.70;;
75195;SDS011;63773;42.282;22.782;2022-10-16T13:42:49;2.63;;;1.70;;
75195;SDS011;63773;42.282;22.782;2022-10-16T13:45:20;3.17;;;1.83;;
75195;SDS011;63773;42.282;22.782;2022-10-16T13:47:46;2.65;;;1.38;;
75195;SDS011;63773;42.282;22.782;2022-10-16T13:50:13;3.58;;;1.88;;
75195;SDS011;63773;42.282;22.782;2022-10-16T13:52:41;3.28;;;1.60;;
75195;SDS011;63773;42.282;22.782;2022-10-16T13:55:14;4.43;;;1.67;;
75195;SDS011;63773;42.282;22.782;2022-10-16T13:57:41;3.10;;;1.33;;
75195;SDS011;63773;42.282;22.782;2022-10-16T14:00:21;2.85;;;1.40;;
75195;SDS011;63773;42.282;22.782;2022-10-16T14:02:54;3.55;;;1.13;;
75195;SDS011;63773;42.282;22.782;2022-10-16T14:05:23;3.28;;;1.20;;
75195;SDS011;63773;42.282;22.782;2022-10-16T14:07:49;3.00;;;1.02;;
75195;SDS011;63773;42.282;22.782;2022-10-16T14:10:27;3.10;;;1.27;;
75195;SDS011;63773;42.282;22.782;2022-10-16T14:12:56;4.22;;;1.98;;
75195;SDS011;63773;42.282;22.782;2022-10-16T14:15:25;3.25;;;1.42;;
75195;SDS011;63773;42.282;22.782;2022-10-16T14:17:51;3.50;;;1.67;;
75195;SDS011;63773;42.282;22.782;2022-10-16T14:23:23;3.58;;;1.33;;
75195;SDS011;63773;42.282;22.782;2022-10-16T14:28:36;4.85;;;2.92;;
75195;SDS011;63773;42.282;22.782;2022-10-16T14:31:03;3.58;;;2.08;;
75195;SDS011;63773;42.282;22.782;2022-10-16T14:33:49;3.85;;;1.45;;
75195;SDS011;63773;42.282;22.782;2022-10-16T14:36:15;5.13;;;1.75;;
75195;SDS011;63773;42.282;22.782;2022-10-16T14:41:45;4.00;;;2.20;;
75195;SDS011;63773;42.282;22.782;2022-10-16T14:44:13;4.65;;;1.95;;
75195;SDS011;63773;42.282;22.782;2022-10-16T14:46:42;3.10;;;1.50;;
75195;SDS011;63773;42.282;22.782;2022-10-16T14:51:34;5.55;;;1.85;;
75195;SDS011;63773;42.282;22.782;2022-10-16T14:54:00;2.92;;;1.45;;
75195;SDS011;63773;42.282;22.782;2022-10-16T14:56:30;3.10;;;1.65;;
75195;SDS011;63773;42.282;22.782;2022-10-16T14:59:13;3.38;;;1.25;;
75195;SDS011;63773;42.282;22.782;2022-10-16T15:01:43;5.32;;;1.48;;
75195;SDS011;63773;42.282;22.782;2022-10-16T15:04:10;2.78;;;1.50;;
75195;SDS011;63773;42.282;22.782;2022-10-16T15:06:37;2.58;;;1.67;;
75195;SDS011;63773;42.282;22.782;2022-10-16T15:09:02;3.42;;;1.60;;
75195;SDS011;63773;42.282;22.782;2022-10-16T15:11:28;4.47;;;1.63;;
75195;SDS011;63773;42.282;22.782;2022-10-16T15:13:54;3.17;;;1.67;;
75195;SDS011;63773;42.282;22.782;2022-10-16T15:16:19;3.50;;;1.73;;
75195;SDS011;63773;42.282;22.782;2022-10-16T15:18:45;4.97;;;1.80;;
75195;SDS011;63773;42.282;22.782;2022-10-16T15:21:29;4.43;;;1.73;;
75195;SDS011;63773;42.282;22.782;2022-10-16T15:23:56;4.18;;;1.75;;
75195;SDS011;63773;42.282;22.782;2022-10-16T15:26:23;3.50;;;2.42;;
75195;SDS011;63773;42.282;22.782;2022-10-16T15:28:50;5.93;;;1.60;;
75195;SDS011;63773;42.282;22.782;2022-10-16T15:31:15;4.25;;;1.70;;
75195;SDS011;63773;42.282;22.782;2022-10-16T15:33:41;3.10;;;1.52;;
75195;SDS011;63773;42.282;22.782;2022-10-16T15:36:06;3.60;;;1.35;;
75195;SDS011;63773;42.282;22.782;2022-10-16T15:38:32;4.63;;;1.63;;
75195;SDS011;63773;42.282;22.782;2022-10-16T15:40:57;2.97;;;1.42;;
75195;SDS011;63773;42.282;22.782;2022-10-16T15:43:22;3.15;;;1.52;;
75195;SDS011;63773;42.282;22.782;2022-10-16T15:46:01;3.05;;;2.05;;
75195;SDS011;63773;42.282;22.782;2022-10-16T15:48:30;4.20;;;1.27;;
75195;SDS011;63773;42.282;22.782;2022-10-16T15:50:56;2.72;;;1.20;;
75195;SDS011;63773;42.282;22.782;2022-10-16T15:53:22;2.92;;;1.77;;
75195;SDS011;63773;42.282;22.782;2022-10-16T15:55:47;5.35;;;1.75;;
75195;SDS011;63773;42.282;22.782;2022-10-16T15:58:13;4.15;;;2.08;;
75195;SDS011;63773;42.282;22.782;2022-10-16T16:00:38;3.00;;;2.20;;
75195;SDS011;63773;42.282;22.782;2022-10-16T16:03:04;3.35;;;2.25;;
75195;SDS011;63773;42.282;22.782;2022-10-16T16:05:29;5.57;;;3.45;;
75195;SDS011;63773;42.282;22.782;2022-10-16T16:07:54;7.57;;;4.55;;
75195;SDS011;63773;42.282;22.782;2022-10-16T16:10:20;6.40;;;4.25;;
75195;SDS011;63773;42.282;22.782;2022-10-16T16:12:47;7.63;;;5.13;;
75195;SDS011;63773;42.282;22.782;2022-10-16T16:15:16;5.50;;;3.60;;
75195;SDS011;63773;42.282;22.782;2022-10-16T16:17:41;6.22;;;2.90;;
75195;SDS011;63773;42.282;22.782;2022-10-16T16:25:00;5.15;;;2.50;;
75195;SDS011;63773;42.282;22.782;2022-10-16T16:27:26;13.32;;;3.80;;
75195;SDS011;63773;42.282;22.782;2022-10-16T16:29:53;6.68;;;3.67;;
75195;SDS011;63773;42.282;22.782;2022-10-16T16:32:20;10.30;;;4.70;;
75195;SDS011;63773;42.282;22.782;2022-10-16T16:34:45;11.40;;;6.55;;
75195;SDS011;63773;42.282;22.782;2022-10-16T16:37:11;9.25;;;5.13;;
75195;SDS011;63773;42.282;22.782;2022-10-16T16:39:36;9.50;;;5.88;;
75195;SDS011;63773;42.282;22.782;2022-10-16T16:42:01;8.85;;;4.93;;
75195;SDS011;63773;42.282;22.782;2022-10-16T16:46:54;9.10;;;4.53;;
75195;SDS011;63773;42.282;22.782;2022-10-16T16:49:19;8.43;;;5.57;;
75195;SDS011;63773;42.282;22.782;2022-10-16T16:51:45;15.25;;;5.70;;
75195;SDS011;63773;42.282;22.782;2022-10-16T16:54:10;10.57;;;5.20;;
75195;SDS011;63773;42.282;22.782;2022-10-16T16:56:37;13.95;;;6.65;;
75195;SDS011;63773;42.282;22.782;2022-10-16T16:59:03;10.88;;;7.30;;
75195;SDS011;63773;42.282;22.782;2022-10-16T17:01:29;10.98;;;6.70;;
75195;SDS011;63773;42.282;22.782;2022-10-16T17:03:56;12.43;;;6.40;;
75195;SDS011;63773;42.282;22.782;2022-10-16T17:06:24;11.10;;;6.80;;
75195;SDS011;63773;42.282;22.782;2022-10-16T17:08:52;10.30;;;6.55;;
75195;SDS011;63773;42.282;22.782;2022-10-16T17:11:21;12.70;;;6.68;;
75195;SDS011;63773;42.282;22.782;2022-10-16T17:13:49;10.45;;;6.38;;
75195;SDS011;63773;42.282;22.782;2022-10-16T17:16:15;11.70;;;6.85;;
75195;SDS011;63773;42.282;22.782;2022-10-16T17:18:41;10.10;;;6.28;;
75195;SDS011;63773;42.282;22.782;2022-10-16T17:21:07;11.15;;;7.68;;
75195;SDS011;63773;42.282;22.782;2022-10-16T17:23:34;11.40;;;6.78;;